메인 페이지
METAR-TAF:

METAR-TAF

공항 :

찬디가르, 인도

위도: 30-40-29N, 경도: 76-47-26E, 고도: 314m

METAR: 누락

시각: 19:52 (14:22 UTC)

예보

예보는 10 시간 52분 전, 03:30시(UTC)에 발표되었습니다.
예보 대상 시간: 14일 06시부터 14일 18시까지 (UTC)
남동10kt
시정: 4000m
고도 10000ft 상공 구름 보통
연무
전환 중
14일 07시부터 14일 08시까지 (UTC)
남남동10kt
시정: 6000m
고도 10000ft 상공 구름 보통
전환 중
14일 10시부터 14일 12시까지 (UTC)
10kt
시정: 5000m
고도 10000ft 상공 구름 보통
고도 25000ft 상공 구름 보통
연무
전환 중
14일 13시부터 14일 14시까지 (UTC)
5kt
시정: 4000m
고도 9000ft 상공 구름 보통
박무

TAF: VICG 140330Z 1406/1418 14010KT 4000 HZ SCT100 BECMG 1407/1408 16010KT 6000 SCT100 BECMG 1410/1412 27010KT 5000 HZ SCT100 SCT250 BECMG 1413/1414 28005KT 4000 BR SCT090

4,000개 이상의 공항 관측 자료 및 예보 (METAR 및 TAF 보고).

지도상에서 검색 가능한 기상관측소가 노란 점과 빨간 점으로 표시되어 있습니다.

기상관측소 명을 보려면 표시 위로 마우스를 이동하세요.

날씨 관측과 예보를 보려면 클릭하세요.

지도 변경 : 확대하려면 엑스 표시가 있는 녹색 버튼, 축소하려면 빼기 표시가 있는 녹색 버튼, 다음 페이지의 지도를 보려면 녹색 화살표를 클릭하세요.


METAR-TAF: